sensor_id;sensor_type;location;lat;lon;timestamp;temperature;humidity
36372;DHT22;22398;51.346;12.372;2023-04-03T00:04:28;2.50;91.60
36372;DHT22;22398;51.346;12.372;2023-04-03T00:09:32;2.50;91.70
36372;DHT22;22398;51.346;12.372;2023-04-03T00:14:35;2.50;91.80
36372;DHT22;22398;51.346;12.372;2023-04-03T00:19:40;2.50;91.90
36372;DHT22;22398;51.346;12.372;2023-04-03T00:24:43;2.50;92.00
36372;DHT22;22398;51.346;12.372;2023-04-03T00:29:47;2.60;92.00
36372;DHT22;22398;51.346;12.372;2023-04-03T00:34:52;2.50;92.00
36372;DHT22;22398;51.346;12.372;2023-04-03T00:39:55;2.40;92.00
36372;DHT22;22398;51.346;12.372;2023-04-03T00:50:44;2.10;92.10
36372;DHT22;22398;51.346;12.372;2023-04-03T00:55:49;1.90;92.20
36372;DHT22;22398;51.346;12.372;2023-04-03T01:00:54;1.80;92.40
36372;DHT22;22398;51.346;12.372;2023-04-03T01:06:01;1.70;92.60
36372;DHT22;22398;51.346;12.372;2023-04-03T01:11:04;1.60;93.10
36372;DHT22;22398;51.346;12.372;2023-04-03T01:16:08;1.50;93.10
36372;DHT22;22398;51.346;12.372;2023-04-03T01:21:51;1.50;93.30
36372;DHT22;22398;51.346;12.372;2023-04-03T01:26:58;1.40;93.40
36372;DHT22;22398;51.346;12.372;2023-04-03T01:32:03;1.20;93.50
36372;DHT22;22398;51.346;12.372;2023-04-03T01:37:07;1.10;93.80
36372;DHT22;22398;51.346;12.372;2023-04-03T01:42:10;1.10;94.00
36372;DHT22;22398;51.346;12.372;2023-04-03T01:47:19;1.00;94.10
36372;DHT22;22398;51.346;12.372;2023-04-03T01:52:22;1.10;94.40
36372;DHT22;22398;51.346;12.372;2023-04-03T01:57:26;1.00;94.50
36372;DHT22;22398;51.346;12.372;2023-04-03T02:02:31;0.90;94.70
36372;DHT22;22398;51.346;12.372;2023-04-03T02:07:34;1.00;95.00
36372;DHT22;22398;51.346;12.372;2023-04-03T02:12:37;1.10;95.10
36372;DHT22;22398;51.346;12.372;2023-04-03T02:17:42;1.10;95.30
36372;DHT22;22398;51.346;12.372;2023-04-03T02:22:48;1.10;95.30
36372;DHT22;22398;51.346;12.372;2023-04-03T02:27:52;1.00;95.40
36372;DHT22;22398;51.346;12.372;2023-04-03T02:32:57;1.00;95.50
36372;DHT22;22398;51.346;12.372;2023-04-03T02:38:01;0.90;95.60
36372;DHT22;22398;51.346;12.372;2023-04-03T02:43:04;0.90;95.80
36372;DHT22;22398;51.346;12.372;2023-04-03T02:48:10;0.80;96.00
36372;DHT22;22398;51.346;12.372;2023-04-03T02:53:13;0.60;96.00
36372;DHT22;22398;51.346;12.372;2023-04-03T02:58:17;0.50;96.20
36372;DHT22;22398;51.346;12.372;2023-04-03T03:03:23;0.30;96.50
36372;DHT22;22398;51.346;12.372;2023-04-03T03:08:26;0.10;96.90
36372;DHT22;22398;51.346;12.372;2023-04-03T03:13:30;0.00;97.20
36372;DHT22;22398;51.346;12.372;2023-04-03T03:18:36;0.00;97.60
36372;DHT22;22398;51.346;12.372;2023-04-03T03:23:40;-0.10;97.90
36372;DHT22;22398;51.346;12.372;2023-04-03T03:28:43;-0.20;98.20
36372;DHT22;22398;51.346;12.372;2023-04-03T03:33:48;-0.30;98.50
36372;DHT22;22398;51.346;12.372;2023-04-03T03:38:53;-0.30;98.90
36372;DHT22;22398;51.346;12.372;2023-04-03T03:43:56;-0.40;99.10
36372;DHT22;22398;51.346;12.372;2023-04-03T03:49:03;-0.50;99.50
36372;DHT22;22398;51.346;12.372;2023-04-03T03:54:07;-0.50;99.70
36372;DHT22;22398;51.346;12.372;2023-04-03T03:59:11;-0.60;99.90
36372;DHT22;22398;51.346;12.372;2023-04-03T04:04:17;-0.70;99.90
36372;DHT22;22398;51.346;12.372;2023-04-03T04:09:21;-0.70;99.90
36372;DHT22;22398;51.346;12.372;2023-04-03T04:14:24;-0.80;99.90
36372;DHT22;22398;51.346;12.372;2023-04-03T04:19:30;-0.90;99.90
36372;DHT22;22398;51.346;12.372;2023-04-03T04:24:33;-0.90;99.90
36372;DHT22;22398;51.346;12.372;2023-04-03T04:29:39;-0.90;99.90
36372;DHT22;22398;51.346;12.372;2023-04-03T04:34:44;-0.90;99.90
36372;DHT22;22398;51.346;12.372;2023-04-03T04:39:47;-0.90;99.90
36372;DHT22;22398;51.346;12.372;2023-04-03T04:44:51;-0.90;99.90
36372;DHT22;22398;51.346;12.372;2023-04-03T04:49:56;-0.90;99.90
36372;DHT22;22398;51.346;12.372;2023-04-03T04:55:00;-0.90;99.90
36372;DHT22;22398;51.346;12.372;2023-04-03T05:00:05;-0.90;99.90
36372;DHT22;22398;51.346;12.372;2023-04-03T05:05:10;-0.80;99.90
36372;DHT22;22398;51.346;12.372;2023-04-03T05:10:14;-0.70;99.90
36372;DHT22;22398;51.346;12.372;2023-04-03T05:15:19;-0.70;99.90
36372;DHT22;22398;51.346;12.372;2023-04-03T05:20:25;-0.50;99.90
36372;DHT22;22398;51.346;12.372;2023-04-03T05:25:29;-0.50;99.90
36372;DHT22;22398;51.346;12.372;2023-04-03T05:30:33;-0.50;99.90
36372;DHT22;22398;51.346;12.372;2023-04-03T05:35:39;-0.40;99.90
36372;DHT22;22398;51.346;12.372;2023-04-03T05:40:46;-0.30;99.90
36372;DHT22;22398;51.346;12.372;2023-04-03T05:45:51;-0.20;99.90
36372;DHT22;22398;51.346;12.372;2023-04-03T05:50:58;-0.10;99.90
36372;DHT22;22398;51.346;12.372;2023-04-03T05:56:02;0.00;99.90
36372;DHT22;22398;51.346;12.372;2023-04-03T06:01:09;0.10;99.90
36372;DHT22;22398;51.346;12.372;2023-04-03T06:06:15;0.30;99.90
36372;DHT22;22398;51.346;12.372;2023-04-03T06:11:19;0.40;99.90
36372;DHT22;22398;51.346;12.372;2023-04-03T06:16:23;0.50;99.90
36372;DHT22;22398;51.346;12.372;2023-04-03T06:21:28;0.70;99.90
36372;DHT22;22398;51.346;12.372;2023-04-03T06:26:32;0.80;99.90
36372;DHT22;22398;51.346;12.372;2023-04-03T06:31:35;0.90;99.90
36372;DHT22;22398;51.346;12.372;2023-04-03T06:36:40;1.10;99.90
36372;DHT22;22398;51.346;12.372;2023-04-03T06:41:44;1.20;99.90
36372;DHT22;22398;51.346;12.372;2023-04-03T06:46:47;1.30;99.90
36372;DHT22;22398;51.346;12.372;2023-04-03T06:51:52;1.50;99.90
36372;DHT22;22398;51.346;12.372;2023-04-03T06:56:56;1.50;99.90
36372;DHT22;22398;51.346;12.372;2023-04-03T07:01:59;1.70;99.70
36372;DHT22;22398;51.346;12.372;2023-04-03T07:07:04;1.90;99.40
36372;DHT22;22398;51.346;12.372;2023-04-03T07:12:07;2.00;99.00
36372;DHT22;22398;51.346;12.372;2023-04-03T07:17:11;2.20;98.40
36372;DHT22;22398;51.346;12.372;2023-04-03T07:22:15;2.30;97.90
36372;DHT22;22398;51.346;12.372;2023-04-03T07:27:19;2.40;97.30
36372;DHT22;22398;51.346;12.372;2023-04-03T07:32:22;2.60;96.90
36372;DHT22;22398;51.346;12.372;2023-04-03T07:37:26;2.70;96.30
36372;DHT22;22398;51.346;12.372;2023-04-03T07:42:30;2.90;95.70
36372;DHT22;22398;51.346;12.372;2023-04-03T07:47:33;3.10;95.00
36372;DHT22;22398;51.346;12.372;2023-04-03T07:52:38;3.20;94.50
36372;DHT22;22398;51.346;12.372;2023-04-03T07:57:41;3.30;93.80
36372;DHT22;22398;51.346;12.372;2023-04-03T08:02:45;3.50;93.40
36372;DHT22;22398;51.346;12.372;2023-04-03T08:07:54;3.70;92.70
36372;DHT22;22398;51.346;12.372;2023-04-03T08:12:57;4.00;92.40
36372;DHT22;22398;51.346;12.372;2023-04-03T08:18:01;4.30;91.60
36372;DHT22;22398;51.346;12.372;2023-04-03T08:23:08;4.60;91.00
36372;DHT22;22398;51.346;12.372;2023-04-03T08:28:12;5.30;90.50
36372;DHT22;22398;51.346;12.372;2023-04-03T08:33:15;5.40;88.10
36372;DHT22;22398;51.346;12.372;2023-04-03T08:38:20;5.20;86.50
36372;DHT22;22398;51.346;12.372;2023-04-03T08:43:34;5.40;86.10
36372;DHT22;22398;51.346;12.372;2023-04-03T08:48:41;6.10;85.40
36372;DHT22;22398;51.346;12.372;2023-04-03T08:53:53;6.90;84.20
36372;DHT22;22398;51.346;12.372;2023-04-03T08:59:00;6.60;80.70
36372;DHT22;22398;51.346;12.372;2023-04-03T09:04:11;5.70;78.60
36372;DHT22;22398;51.346;12.372;2023-04-03T09:09:26;5.20;77.40
36372;DHT22;22398;51.346;12.372;2023-04-03T09:14:37;4.60;77.00
36372;DHT22;22398;51.346;12.372;2023-04-03T09:19:47;4.50;76.80
36372;DHT22;22398;51.346;12.372;2023-04-03T09:24:59;4.70;76.30
36372;DHT22;22398;51.346;12.372;2023-04-03T09:30:05;5.30;76.80
36372;DHT22;22398;51.346;12.372;2023-04-03T09:35:19;5.90;76.00
36372;DHT22;22398;51.346;12.372;2023-04-03T09:40:40;6.30;74.30
36372;DHT22;22398;51.346;12.372;2023-04-03T09:45:45;6.10;73.30
36372;DHT22;22398;51.346;12.372;2023-04-03T09:51:00;5.90;72.80
36372;DHT22;22398;51.346;12.372;2023-04-03T09:56:20;6.00;72.00
36372;DHT22;22398;51.346;12.372;2023-04-03T10:01:27;6.50;72.00
36372;DHT22;22398;51.346;12.372;2023-04-03T10:06:33;6.60;71.00
36372;DHT22;22398;51.346;12.372;2023-04-03T10:11:58;6.20;69.90
36372;DHT22;22398;51.346;12.372;2023-04-03T10:17:15;6.40;70.10
36372;DHT22;22398;51.346;12.372;2023-04-03T10:22:26;6.70;69.60
36372;DHT22;22398;51.346;12.372;2023-04-03T10:27:51;6.90;69.00
36372;DHT22;22398;51.346;12.372;2023-04-03T10:33:12;6.80;67.70
36372;DHT22;22398;51.346;12.372;2023-04-03T10:38:27;6.80;68.40
36372;DHT22;22398;51.346;12.372;2023-04-03T10:43:42;7.10;67.80
36372;DHT22;22398;51.346;12.372;2023-04-03T10:48:54;7.10;66.60
36372;DHT22;22398;51.346;12.372;2023-04-03T10:54:08;7.30;66.40
36372;DHT22;22398;51.346;12.372;2023-04-03T10:59:25;7.50;65.90
36372;DHT22;22398;51.346;12.372;2023-04-03T11:04:35;7.70;65.80
36372;DHT22;22398;51.346;12.372;2023-04-03T11:09:41;8.50;65.60
36372;DHT22;22398;51.346;12.372;2023-04-03T11:14:48;8.70;64.40
36372;DHT22;22398;51.346;12.372;2023-04-03T11:20:01;8.00;63.40
36372;DHT22;22398;51.346;12.372;2023-04-03T11:25:17;7.70;63.20
36372;DHT22;22398;51.346;12.372;2023-04-03T11:30:28;7.20;62.50
36372;DHT22;22398;51.346;12.372;2023-04-03T11:35:34;7.30;63.20
36372;DHT22;22398;51.346;12.372;2023-04-03T11:40:38;7.50;62.90
36372;DHT22;22398;51.346;12.372;2023-04-03T11:45:54;8.10;63.00
36372;DHT22;22398;51.346;12.372;2023-04-03T11:50:58;8.00;62.30
36372;DHT22;22398;51.346;12.372;2023-04-03T11:56:30;7.50;61.40
36372;DHT22;22398;51.346;12.372;2023-04-03T12:01:46;7.30;61.20
36372;DHT22;22398;51.346;12.372;2023-04-03T12:07:00;8.30;61.90
36372;DHT22;22398;51.346;12.372;2023-04-03T12:12:27;8.60;60.70
36372;DHT22;22398;51.346;12.372;2023-04-03T12:17:33;7.70;59.90
36372;DHT22;22398;51.346;12.372;2023-04-03T12:22:37;7.80;60.60
36372;DHT22;22398;51.346;12.372;2023-04-03T12:27:42;8.40;60.10
36372;DHT22;22398;51.346;12.372;2023-04-03T12:33:04;8.20;59.40
36372;DHT22;22398;51.346;12.372;2023-04-03T12:38:47;8.00;59.40
36372;DHT22;22398;51.346;12.372;2023-04-03T12:44:06;8.10;59.60
36372;DHT22;22398;51.346;12.372;2023-04-03T12:49:24;8.10;58.90
36372;DHT22;22398;51.346;12.372;2023-04-03T12:54:32;7.90;59.00
36372;DHT22;22398;51.346;12.372;2023-04-03T12:59:38;7.70;58.90
36372;DHT22;22398;51.346;12.372;2023-04-03T13:04:44;7.60;58.90
36372;DHT22;22398;51.346;12.372;2023-04-03T13:09:56;7.80;58.60
36372;DHT22;22398;51.346;12.372;2023-04-03T13:15:14;7.90;58.20
36372;DHT22;22398;51.346;12.372;2023-04-03T13:20:23;7.90;58.00
36372;DHT22;22398;51.346;12.372;2023-04-03T13:25:30;7.90;58.00
36372;DHT22;22398;51.346;12.372;2023-04-03T13:30:36;7.80;57.50
36372;DHT22;22398;51.346;12.372;2023-04-03T13:35:42;7.70;57.60
36372;DHT22;22398;51.346;12.372;2023-04-03T13:40:48;7.90;57.80
36372;DHT22;22398;51.346;12.372;2023-04-03T13:46:02;7.90;57.40
36372;DHT22;22398;51.346;12.372;2023-04-03T13:51:20;7.60;56.90
36372;DHT22;22398;51.346;12.372;2023-04-03T13:56:29;7.60;57.10
36372;DHT22;22398;51.346;12.372;2023-04-03T14:01:40;8.00;57.40
36372;DHT22;22398;51.346;12.372;2023-04-03T14:06:46;7.90;56.80
36372;DHT22;22398;51.346;12.372;2023-04-03T14:11:53;7.50;56.80
36372;DHT22;22398;51.346;12.372;2023-04-03T14:16:59;7.10;57.40
36372;DHT22;22398;51.346;12.372;2023-04-03T14:22:12;7.10;58.00
36372;DHT22;22398;51.346;12.372;2023-04-03T14:27:19;6.80;57.60
36372;DHT22;22398;51.346;12.372;2023-04-03T14:32:24;6.70;58.00
36372;DHT22;22398;51.346;12.372;2023-04-03T14:37:30;6.70;57.90
36372;DHT22;22398;51.346;12.372;2023-04-03T14:42:36;6.60;58.00
36372;DHT22;22398;51.346;12.372;2023-04-03T14:47:40;6.70;58.20
36372;DHT22;22398;51.346;12.372;2023-04-03T14:52:48;6.60;57.70
36372;DHT22;22398;51.346;12.372;2023-04-03T14:57:53;6.80;58.10
36372;DHT22;22398;51.346;12.372;2023-04-03T15:02:56;6.70;57.70
36372;DHT22;22398;51.346;12.372;2023-04-03T15:08:02;6.90;58.00
36372;DHT22;22398;51.346;12.372;2023-04-03T15:13:05;7.00;57.80
36372;DHT22;22398;51.346;12.372;2023-04-03T15:18:14;6.70;57.30
36372;DHT22;22398;51.346;12.372;2023-04-03T15:23:20;6.50;57.10
36372;DHT22;22398;51.346;12.372;2023-04-03T15:28:30;6.30;57.60
36372;DHT22;22398;51.346;12.372;2023-04-03T15:33:35;6.50;57.70
36372;DHT22;22398;51.346;12.372;2023-04-03T15:38:40;6.50;57.70
36372;DHT22;22398;51.346;12.372;2023-04-03T15:43:44;6.30;57.60
36372;DHT22;22398;51.346;12.372;2023-04-03T15:48:48;6.10;57.60
36372;DHT22;22398;51.346;12.372;2023-04-03T15:53:53;6.00;57.90
36372;DHT22;22398;51.346;12.372;2023-04-03T15:58:57;5.90;58.00
36372;DHT22;22398;51.346;12.372;2023-04-03T16:04:00;5.80;58.20
36372;DHT22;22398;51.346;12.372;2023-04-03T16:09:06;5.80;58.10
36372;DHT22;22398;51.346;12.372;2023-04-03T16:14:10;5.70;58.20
36372;DHT22;22398;51.346;12.372;2023-04-03T16:19:14;5.80;58.20
36372;DHT22;22398;51.346;12.372;2023-04-03T16:24:19;5.80;58.20
36372;DHT22;22398;51.346;12.372;2023-04-03T16:29:23;5.70;58.40
36372;DHT22;22398;51.346;12.372;2023-04-03T16:34:26;5.50;58.50
36372;DHT22;22398;51.346;12.372;2023-04-03T16:39:34;5.50;59.00
36372;DHT22;22398;51.346;12.372;2023-04-03T16:44:38;5.40;59.20
36372;DHT22;22398;51.346;12.372;2023-04-03T16:49:42;5.30;59.30
36372;DHT22;22398;51.346;12.372;2023-04-03T16:54:47;5.20;59.60
36372;DHT22;22398;51.346;12.372;2023-04-03T16:59:51;5.10;60.00
36372;DHT22;22398;51.346;12.372;2023-04-03T17:04:55;5.00;60.20
36372;DHT22;22398;51.346;12.372;2023-04-03T17:10:00;5.10;60.50
36372;DHT22;22398;51.346;12.372;2023-04-03T17:15:04;5.00;60.50
36372;DHT22;22398;51.346;12.372;2023-04-03T17:20:09;4.90;60.80
36372;DHT22;22398;51.346;12.372;2023-04-03T17:25:14;4.90;60.90
36372;DHT22;22398;51.346;12.372;2023-04-03T17:30:18;4.90;61.10
36372;DHT22;22398;51.346;12.372;2023-04-03T17:35:21;4.80;61.30
36372;DHT22;22398;51.346;12.372;2023-04-03T17:40:27;4.80;61.50
36372;DHT22;22398;51.346;12.372;2023-04-03T17:45:31;4.70;61.70
36372;DHT22;22398;51.346;12.372;2023-04-03T17:50:36;4.70;61.90
36372;DHT22;22398;51.346;12.372;2023-04-03T17:55:41;4.60;62.20
36372;DHT22;22398;51.346;12.372;2023-04-03T18:00:44;4.60;62.40
36372;DHT22;22398;51.346;12.372;2023-04-03T18:05:48;4.60;62.60
36372;DHT22;22398;51.346;12.372;2023-04-03T18:10:57;4.60;62.80
36372;DHT22;22398;51.346;12.372;2023-04-03T18:16:01;4.50;63.00
36372;DHT22;22398;51.346;12.372;2023-04-03T18:21:08;4.50;63.40
36372;DHT22;22398;51.346;12.372;2023-04-03T18:26:14;4.50;63.40
36372;DHT22;22398;51.346;12.372;2023-04-03T18:31:21;4.40;63.20
36372;DHT22;22398;51.346;12.372;2023-04-03T18:36:27;4.30;62.70
36372;DHT22;22398;51.346;12.372;2023-04-03T18:41:34;4.40;62.40
36372;DHT22;22398;51.346;12.372;2023-04-03T18:46:39;4.40;62.00
36372;DHT22;22398;51.346;12.372;2023-04-03T18:51:42;4.30;61.90
36372;DHT22;22398;51.346;12.372;2023-04-03T18:56:47;4.30;61.80
36372;DHT22;22398;51.346;12.372;2023-04-03T19:01:51;4.30;61.60
36372;DHT22;22398;51.346;12.372;2023-04-03T19:06:54;4.40;61.80
36372;DHT22;22398;51.346;12.372;2023-04-03T19:12:00;4.40;61.90
36372;DHT22;22398;51.346;12.372;2023-04-03T19:17:03;4.40;62.00
36372;DHT22;22398;51.346;12.372;2023-04-03T19:22:09;4.40;62.20
36372;DHT22;22398;51.346;12.372;2023-04-03T19:27:13;4.30;62.40
36372;DHT22;22398;51.346;12.372;2023-04-03T19:32:18;4.10;62.60
36372;DHT22;22398;51.346;12.372;2023-04-03T19:37:21;4.10;63.00
36372;DHT22;22398;51.346;12.372;2023-04-03T19:42:28;4.10;63.30
36372;DHT22;22398;51.346;12.372;2023-04-03T19:47:35;4.10;63.50
36372;DHT22;22398;51.346;12.372;2023-04-03T19:52:39;4.00;63.70
36372;DHT22;22398;51.346;12.372;2023-04-03T19:57:45;4.10;63.90
36372;DHT22;22398;51.346;12.372;2023-04-03T20:02:48;4.00;64.10
36372;DHT22;22398;51.346;12.372;2023-04-03T20:07:52;4.00;64.30
36372;DHT22;22398;51.346;12.372;2023-04-03T20:12:58;4.00;64.50
36372;DHT22;22398;51.346;12.372;2023-04-03T20:18:02;4.00;64.60
36372;DHT22;22398;51.346;12.372;2023-04-03T20:23:07;4.00;64.70
36372;DHT22;22398;51.346;12.372;2023-04-03T20:28:13;4.00;64.80
36372;DHT22;22398;51.346;12.372;2023-04-03T20:33:18;4.00;65.00
36372;DHT22;22398;51.346;12.372;2023-04-03T20:38:22;3.90;65.10
36372;DHT22;22398;51.346;12.372;2023-04-03T20:43:27;3.80;65.40
36372;DHT22;22398;51.346;12.372;2023-04-03T20:48:31;3.80;65.60
36372;DHT22;22398;51.346;12.372;2023-04-03T20:53:34;3.80;65.80
36372;DHT22;22398;51.346;12.372;2023-04-03T20:58:40;3.80;66.10
36372;DHT22;22398;51.346;12.372;2023-04-03T21:03:45;3.80;66.30
36372;DHT22;22398;51.346;12.372;2023-04-03T21:20:12;3.80;66.80
36372;DHT22;22398;51.346;12.372;2023-04-03T21:25:16;3.80;66.90
36372;DHT22;22398;51.346;12.372;2023-04-03T21:30:19;3.80;67.20
36372;DHT22;22398;51.346;12.372;2023-04-03T21:35:24;3.80;67.30
36372;DHT22;22398;51.346;12.372;2023-04-03T21:40:28;3.80;67.50
36372;DHT22;22398;51.346;12.372;2023-04-03T21:45:32;3.70;67.70
36372;DHT22;22398;51.346;12.372;2023-04-03T21:50:37;3.70;68.00
36372;DHT22;22398;51.346;12.372;2023-04-03T21:55:41;3.70;68.20
36372;DHT22;22398;51.346;12.372;2023-04-03T22:00:45;3.60;68.40
36372;DHT22;22398;51.346;12.372;2023-04-03T22:05:50;3.60;68.60
36372;DHT22;22398;51.346;12.372;2023-04-03T22:10:59;3.50;68.80
36372;DHT22;22398;51.346;12.372;2023-04-03T22:16:04;3.40;69.20
36372;DHT22;22398;51.346;12.372;2023-04-03T22:21:09;3.40;69.70
36372;DHT22;22398;51.346;12.372;2023-04-03T22:26:13;3.40;70.10
36372;DHT22;22398;51.346;12.372;2023-04-03T22:31:16;3.30;70.40
36372;DHT22;22398;51.346;12.372;2023-04-03T22:36:23;3.30;70.70
36372;DHT22;22398;51.346;12.372;2023-04-03T22:41:27;3.30;71.10
36372;DHT22;22398;51.346;12.372;2023-04-03T22:46:30;3.40;71.40
36372;DHT22;22398;51.346;12.372;2023-04-03T22:51:35;3.40;71.60
36372;DHT22;22398;51.346;12.372;2023-04-03T22:56:39;3.40;71.80
36372;DHT22;22398;51.346;12.372;2023-04-03T23:01:43;3.40;72.10
36372;DHT22;22398;51.346;12.372;2023-04-03T23:06:48;3.40;72.30
36372;DHT22;22398;51.346;12.372;2023-04-03T23:11:51;3.40;72.50
36372;DHT22;22398;51.346;12.372;2023-04-03T23:16:54;3.40;72.80
36372;DHT22;22398;51.346;12.372;2023-04-03T23:22:00;3.30;72.90
36372;DHT22;22398;51.346;12.372;2023-04-03T23:27:04;3.30;73.30
36372;DHT22;22398;51.346;12.372;2023-04-03T23:32:08;3.30;73.60
36372;DHT22;22398;51.346;12.372;2023-04-03T23:37:13;3.30;73.90
36372;DHT22;22398;51.346;12.372;2023-04-03T23:42:17;3.30;74.30
36372;DHT22;22398;51.346;12.372;2023-04-03T23:47:20;3.20;74.70
36372;DHT22;22398;51.346;12.372;2023-04-03T23:52:25;3.10;75.00
36372;DHT22;22398;51.346;12.372;2023-04-03T23:57:29;3.20;75.40
